Time;durP1;ratioP1;P1;durP2;ratioP2;P2;SDS_P1;SDS_P2;PMS_P1;PMS_P2;Temp;Humidity;BMP_temperature;BMP_pressure;BME280_temperature;BME280_humidity;BME280_pressure;Samples;Min_cycle;Max_cycle;Signal;HPM_P1;HPM_P2
2022/03/13 00:02:02;;;;;;;8.20;4.38;;;;;;;-10.65;95.21;91669.91;5011070;28;20061;-62
2022/03/13 00:04:27;;;;;;;9.65;4.47;;;;;;;-10.76;95.63;91669.47;5013900;28;20109;-61
2022/03/13 00:06:53;;;;;;;11.57;5.43;;;;;;;-10.87;96.90;91675.78;5015201;28;20460;-61
2022/03/13 00:09:23;;;;;;;6.15;3.15;;;;;;;-10.79;97.47;91664.66;5015080;28;20080;-61
2022/03/13 00:11:53;;;;;;;8.98;4.68;;;;;;;-10.85;97.83;91666.13;5015034;28;20448;-61
2022/03/13 00:14:20;;;;;;;9.80;5.15;;;;;;;-10.85;97.89;91663.56;5014920;28;20026;-62
2022/03/13 00:16:46;;;;;;;11.05;4.65;;;;;;;-10.80;98.87;91668.19;5014956;28;20037;-63
2022/03/13 00:19:11;;;;;;;12.35;5.40;;;;;;;-10.84;98.64;91662.59;5014615;28;20018;-62
2022/03/13 00:21:39;;;;;;;10.93;4.28;;;;;;;-10.87;99.13;91647.50;5014691;28;20041;-62
2022/03/13 00:24:06;;;;;;;10.18;4.32;;;;;;;-10.78;99.14;91655.97;5014646;28;20113;-61
2022/03/13 00:26:35;;;;;;;7.88;4.07;;;;;;;-10.84;99.09;91648.94;5014660;28;20060;-62
2022/03/13 00:29:00;;;;;;;8.43;4.25;;;;;;;-10.83;99.02;91648.78;5014557;28;20030;-62
2022/03/13 00:31:25;;;;;;;8.57;3.85;;;;;;;-10.83;99.43;91642.81;5014646;28;20025;-62
2022/03/13 00:33:51;;;;;;;4.28;2.70;;;;;;;-10.73;99.00;91654.53;4997010;28;20069;-62
2022/03/13 00:36:16;;;;;;;7.57;3.80;;;;;;;-10.71;98.14;91647.47;5014456;28;20026;-61
2022/03/13 00:38:42;;;;;;;6.82;3.30;;;;;;;-10.69;97.89;91650.66;5014324;28;20104;-62
2022/03/13 00:41:08;;;;;;;6.90;4.03;;;;;;;-10.73;97.46;91644.25;5014442;28;20088;-62
2022/03/13 00:43:33;;;;;;;7.47;3.50;;;;;;;-10.80;97.28;91635.59;5014368;28;20038;-61
2022/03/13 00:45:59;;;;;;;6.30;3.05;;;;;;;-10.86;97.41;91638.03;5014367;28;20639;-62
2022/03/13 00:48:26;;;;;;;5.95;3.03;;;;;;;-10.84;97.47;91639.47;5014204;28;20057;-61
2022/03/13 00:50:51;;;;;;;6.00;3.08;;;;;;;-10.81;97.35;91636.56;5014505;28;20104;-62
2022/03/13 00:53:17;;;;;;;5.72;3.15;;;;;;;-10.84;97.42;91636.88;5014185;28;20066;-62
2022/03/13 00:55:42;;;;;;;4.97;2.28;;;;;;;-10.86;97.96;91638.81;5014089;28;20034;-62
2022/03/13 00:58:08;;;;;;;3.25;2.05;;;;;;;-10.89;98.44;91606.56;5013844;28;20397;-61
2022/03/13 01:00:34;;;;;;;2.35;1.80;;;;;;;-10.75;98.11;91617.91;5014238;28;20117;-62
2022/03/13 01:02:59;;;;;;;5.38;3.40;;;;;;;-10.74;97.91;91626.41;5014018;28;20607;-61
2022/03/13 01:05:27;;;;;;;3.75;2.38;;;;;;;-10.73;97.71;91628.00;5013576;28;20026;-61
2022/03/13 01:07:55;;;;;;;7.22;3.25;;;;;;;-10.72;97.42;91629.63;5013739;28;20042;-62
2022/03/13 01:10:21;;;;;;;8.60;3.92;;;;;;;-10.73;97.05;91631.41;5013625;28;20024;-62
2022/03/13 01:12:49;;;;;;;6.47;3.05;;;;;;;-10.79;96.96;91611.50;5014027;28;20091;-61
2022/03/13 01:15:15;;;;;;;6.70;3.70;;;;;;;-10.75;97.04;91620.47;5013634;28;20030;-62
2022/03/13 01:17:42;;;;;;;2.83;1.95;;;;;;;-10.73;96.97;91618.56;5013705;28;20022;-62
2022/03/13 01:20:16;;;;;;;11.73;3.97;;;;;;;-10.83;97.11;91617.94;5013494;28;20029;-62
2022/03/13 01:22:41;;;;;;;7.07;3.90;;;;;;;-10.88;97.26;91625.34;4994194;28;20039;-62
2022/03/13 01:25:07;;;;;;;6.97;4.03;;;;;;;-10.90;97.80;91619.53;4994037;28;20500;-62
2022/03/13 01:27:35;;;;;;;5.65;3.20;;;;;;;-10.88;97.89;91609.94;4994128;28;20038;-62
2022/03/13 01:30:02;;;;;;;6.70;3.75;;;;;;;-10.84;98.13;91616.34;4994129;28;20030;-62
2022/03/13 01:32:27;;;;;;;9.20;3.40;;;;;;;-10.85;98.06;91613.94;4993936;28;20101;-61
2022/03/13 01:34:54;;;;;;;7.05;3.60;;;;;;;-10.91;97.90;91615.38;4993899;28;20164;-61
2022/03/13 01:37:34;;;;;;;4.78;3.22;;;;;;;-10.94;97.56;91619.06;4993697;28;20034;-61
2022/03/13 01:40:05;;;;;;;4.35;2.92;;;;;;;-10.93;97.62;91614.75;4993565;28;20062;-62
2022/03/13 01:42:31;;;;;;;8.35;3.38;;;;;;;-10.93;97.38;91612.16;4993788;28;20030;-61
2022/03/13 01:44:56;;;;;;;8.07;3.17;;;;;;;-10.93;97.31;91614.75;4993767;28;20031;-62
2022/03/13 01:47:23;;;;;;;6.10;2.92;;;;;;;-10.94;96.99;91602.88;4993691;28;20034;-62
2022/03/13 01:49:49;;;;;;;5.22;3.35;;;;;;;-11.02;97.44;91598.56;4993783;28;20041;-62
2022/03/13 01:52:16;;;;;;;7.40;4.40;;;;;;;-11.07;97.58;91600.00;4993564;28;20411;-62
2022/03/13 01:54:45;;;;;;;4.25;2.35;;;;;;;-11.11;97.96;91593.59;4993431;28;20117;-62
2022/03/13 01:57:16;;;;;;;4.82;2.40;;;;;;;-11.10;97.50;91598.56;4993696;28;20401;-61
2022/03/13 01:59:42;;;;;;;5.03;3.10;;;;;;;-11.18;97.96;91596.84;4993527;28;20368;-62
2022/03/13 02:02:07;;;;;;;3.03;2.00;;;;;;;-11.25;98.53;91588.16;4993403;28;20030;-60
2022/03/13 02:04:33;;;;;;;6.88;3.30;;;;;;;-11.23;98.56;91596.50;4993368;28;20046;-60
2022/03/13 02:06:58;;;;;;;3.60;2.30;;;;;;;-11.15;99.06;91589.75;4993339;28;20085;-62
2022/03/13 02:09:26;;;;;;;4.93;3.08;;;;;;;-11.10;99.42;91584.94;4993377;28;20512;-61
2022/03/13 02:11:51;;;;;;;3.40;2.67;;;;;;;-11.07;99.57;91585.38;4993172;28;20089;-62
2022/03/13 02:14:21;;;;;;;3.90;2.13;;;;;;;-10.94;99.41;91593.38;4993129;28;20038;-62
2022/03/13 02:16:47;;;;;;;2.22;1.73;;;;;;;-10.90;98.39;91596.41;4993120;28;20503;-60
2022/03/13 02:19:14;;;;;;;4.00;2.47;;;;;;;-10.91;97.52;91587.91;4992909;28;20355;-63
2022/03/13 02:21:48;;;;;;;4.53;3.15;;;;;;;-10.94;96.52;91590.00;4992912;28;20125;-62
2022/03/13 02:24:15;;;;;;;6.75;2.78;;;;;;;-11.07;96.41;91582.03;4992947;28;20022;-62
2022/03/13 02:26:43;;;;;;;6.28;3.40;;;;;;;-11.10;96.40;91574.66;4992566;28;20038;-62
2022/03/13 02:29:15;;;;;;;4.00;2.65;;;;;;;-11.12;97.17;91579.16;4986804;28;20424;-62
2022/03/13 02:31:40;;;;;;;4.83;2.40;;;;;;;-11.18;98.19;91584.00;4992849;28;20093;-62
2022/03/13 02:34:12;;;;;;;4.18;2.20;;;;;;;-11.12;98.13;91579.94;4992782;28;20030;-61
2022/03/13 02:36:37;;;;;;;3.70;2.25;;;;;;;-11.08;98.43;91583.78;4992748;28;20026;-62
2022/03/13 02:39:08;;;;;;;5.93;3.38;;;;;;;-11.11;98.73;91584.13;4992580;28;20030;-62
2022/03/13 02:41:33;;;;;;;4.93;3.40;;;;;;;-11.06;98.87;91573.34;4992654;28;20029;-62
2022/03/13 02:43:59;;;;;;;11.07;1.85;;;;;;;-10.94;99.10;91585.69;4992846;28;20547;-61
2022/03/13 02:46:42;;;;;;;4.47;2.33;;;;;;;-10.81;98.72;91584.34;4992446;28;20562;-62
2022/03/13 02:49:08;;;;;;;2.13;1.92;;;;;;;-10.74;98.31;91580.94;4992402;28;20030;-62
2022/03/13 02:51:34;;;;;;;4.60;2.80;;;;;;;-10.79;97.60;91578.09;4992448;28;20048;-62
2022/03/13 02:53:59;;;;;;;4.38;2.95;;;;;;;-10.76;96.94;91587.22;4992422;28;20034;-62
2022/03/13 02:56:24;;;;;;;5.90;2.33;;;;;;;-10.77;96.12;91593.34;4992330;28;20027;-62
2022/03/13 02:58:50;;;;;;;9.05;4.00;;;;;;;-10.79;95.49;91597.84;4992186;28;20065;-63
2022/03/13 03:03:40;;;;;;;6.45;3.60;;;;;;;-10.81;95.06;91590.31;5140889;23;20057;-73
2022/03/13 03:06:05;;;;;;;4.82;2.75;;;;;;;-10.86;95.42;91587.44;5011889;28;20034;-73
2022/03/13 03:08:31;;;;;;;4.88;2.67;;;;;;;-10.79;95.10;91603.78;5011826;28;20030;-73
2022/03/13 03:10:56;;;;;;;4.47;2.60;;;;;;;-10.81;95.21;91598.00;5011775;28;20038;-73
2022/03/13 03:13:22;;;;;;;4.70;2.70;;;;;;;-10.88;95.17;91579.09;5011951;28;20026;-73
2022/03/13 03:15:47;;;;;;;3.35;2.53;;;;;;;-10.79;94.83;91585.00;5011664;28;20045;-73
2022/03/13 03:18:12;;;;;;;5.55;2.83;;;;;;;-10.83;94.69;91596.56;4994116;28;20029;-74
2022/03/13 03:20:39;;;;;;;4.63;2.35;;;;;;;-10.80;95.15;91591.09;5011599;28;20024;-73
2022/03/13 03:23:05;;;;;;;2.83;1.70;;;;;;;-10.81;94.78;91600.59;5011594;28;20160;-73
2022/03/13 03:25:31;;;;;;;4.28;1.95;;;;;;;-10.79;94.26;91592.69;5011540;28;20034;-73
2022/03/13 03:27:58;;;;;;;5.20;2.95;;;;;;;-10.84;93.93;91585.50;5011395;28;20066;-72
2022/03/13 03:30:25;;;;;;;6.38;2.67;;;;;;;-10.81;94.07;91584.34;5011478;28;20038;-73
2022/03/13 03:32:53;;;;;;;3.20;2.20;;;;;;;-10.86;94.11;91587.44;5011352;28;20483;-73
2022/03/13 03:35:20;;;;;;;3.50;2.40;;;;;;;-10.89;93.63;91592.88;5011268;28;20040;-73
2022/03/13 03:37:47;;;;;;;7.15;2.60;;;;;;;-11.01;94.39;91591.66;5010450;28;20040;-73
2022/03/13 03:40:13;;;;;;;3.75;2.35;;;;;;;-11.02;94.98;91590.84;5011364;28;20038;-74
2022/03/13 03:42:39;;;;;;;7.00;2.85;;;;;;;-11.05;95.53;91588.59;5011518;28;20036;-73
2022/03/13 03:45:06;;;;;;;7.25;3.03;;;;;;;-11.08;95.42;91583.00;5011331;28;20483;-73
2022/03/13 03:47:31;;;;;;;5.50;2.90;;;;;;;-11.23;95.99;91586.22;5011129;28;20025;-73
2022/03/13 03:49:57;;;;;;;4.82;2.95;;;;;;;-11.28;96.17;91585.94;5011104;28;20411;-73
2022/03/13 03:52:22;;;;;;;4.32;2.58;;;;;;;-11.32;96.74;91571.03;5011188;28;20036;-73
2022/03/13 03:54:48;;;;;;;4.40;2.97;;;;;;;-11.31;96.96;91583.69;5011279;28;20041;-74
2022/03/13 03:57:13;;;;;;;3.70;2.13;;;;;;;-11.33;96.87;91577.91;5011146;28;20470;-73
2022/03/13 03:59:39;;;;;;;6.85;2.70;;;;;;;-11.36;97.13;91570.56;5011126;28;20034;-72
2022/03/13 04:02:04;;;;;;;7.22;4.28;;;;;;;-11.34;97.10;91571.19;5010875;28;20049;-73
2022/03/13 04:04:29;;;;;;;6.40;3.83;;;;;;;-11.42;97.54;91578.88;5011157;28;20108;-73
2022/03/13 04:06:55;;;;;;;5.20;2.30;;;;;;;-11.37;98.06;91574.06;5011076;28;20026;-73
2022/03/13 04:09:20;;;;;;;5.53;2.70;;;;;;;-11.48;98.17;91557.25;5011004;28;20125;-73
2022/03/13 04:11:47;;;;;;;6.72;3.00;;;;;;;-11.47;98.78;91565.75;5010970;28;20065;-72
2022/03/13 04:14:21;;;;;;;6.72;3.65;;;;;;;-11.51;99.14;91543.94;5011039;28;20105;-73
2022/03/13 04:16:47;;;;;;;8.38;3.92;;;;;;;-11.38;99.54;91567.31;5010947;28;20125;-74
2022/03/13 04:19:13;;;;;;;7.45;3.28;;;;;;;-11.35;99.71;91572.16;5011013;28;20105;-74
2022/03/13 04:21:40;;;;;;;6.50;3.47;;;;;;;-11.19;99.14;91574.69;5010866;28;20031;-74
2022/03/13 04:24:11;;;;;;;4.35;2.78;;;;;;;-11.06;98.69;91570.78;5011029;28;20084;-74
2022/03/13 04:26:39;;;;;;;9.48;3.53;;;;;;;-10.89;97.68;91573.16;5010969;28;20100;-73
2022/03/13 04:29:09;;;;;;;7.38;3.53;;;;;;;-10.77;96.92;91575.34;5010845;28;20030;-74
2022/03/13 04:31:36;;;;;;;6.80;3.05;;;;;;;-10.71;96.30;91570.34;5010697;28;20022;-74
2022/03/13 04:34:01;;;;;;;3.97;2.67;;;;;;;-10.84;95.05;91549.53;5011144;28;20110;-74
2022/03/13 04:36:28;;;;;;;6.38;3.38;;;;;;;-10.69;95.02;91559.91;5010824;28;20061;-73
2022/03/13 04:38:54;;;;;;;7.38;4.55;;;;;;;-10.64;94.14;91560.19;5010794;28;20040;-73
2022/03/13 04:41:20;;;;;;;9.05;4.90;;;;;;;-10.60;93.68;91559.69;5010789;28;20124;-74
2022/03/13 04:43:46;;;;;;;8.07;5.32;;;;;;;-10.52;93.15;91565.78;5010809;28;20106;-74
2022/03/13 04:46:11;;;;;;;10.32;5.82;;;;;;;-10.45;92.57;91567.47;5010748;28;20156;-72
2022/03/13 04:48:37;;;;;;;6.97;3.75;;;;;;;-10.45;92.13;91567.47;5010747;28;20037;-73
2022/03/13 04:51:03;;;;;;;12.00;6.38;;;;;;;-10.44;92.19;91563.13;5014142;28;20022;-73
2022/03/13 04:53:28;;;;;;;18.25;5.40;;;;;;;-10.32;91.99;91560.03;5014318;28;20232;-73
2022/03/13 04:55:54;;;;;;;7.10;4.82;;;;;;;-10.25;91.47;91546.47;5014352;28;20179;-73
2022/03/13 04:58:19;;;;;;;3.97;3.35;;;;;;;-10.08;90.18;91553.91;5014290;28;20100;-73
2022/03/13 05:00:47;;;;;;;8.35;3.47;;;;;;;-9.90;89.76;91558.78;5014258;28;20027;-73
2022/03/13 05:03:15;;;;;;;7.80;3.80;;;;;;;-9.84;88.33;91560.66;5013907;28;20058;-73
2022/03/13 05:05:41;;;;;;;6.32;3.13;;;;;;;-9.80;87.86;91564.47;5014176;28;20029;-72
2022/03/13 05:08:15;;;;;;;11.07;5.43;;;;;;;-9.69;87.08;91560.69;5014087;28;20415;-73
2022/03/13 05:10:45;;;;;;;9.13;5.45;;;;;;;-9.48;86.47;91563.41;5013978;28;20026;-73
2022/03/13 05:13:14;;;;;;;11.98;5.13;;;;;;;-9.42;85.42;91556.78;5013901;28;20034;-73
2022/03/13 05:15:39;;;;;;;11.25;5.35;;;;;;;-9.18;84.67;91555.72;5013959;28;20391;-73
2022/03/13 05:18:05;;;;;;;12.25;5.53;;;;;;;-8.91;83.24;91565.44;5013933;28;20021;-73
2022/03/13 05:20:33;;;;;;;19.10;10.88;;;;;;;-8.72;81.92;91571.03;5013928;28;20029;-73
2022/03/13 05:22:58;;;;;;;10.82;5.70;;;;;;;-8.50;80.53;91573.53;5013830;28;20484;-73
2022/03/13 05:25:24;;;;;;;14.88;6.10;;;;;;;-8.39;78.68;91566.28;5013828;28;20040;-73
2022/03/13 05:27:53;;;;;;;34.58;13.43;;;;;;;-8.29;78.24;91561.63;5013637;28;20029;-74
2022/03/13 05:30:20;;;;;;;47.03;17.80;;;;;;;-8.27;78.11;91562.25;5013681;28;20022;-73
2022/03/13 05:32:46;;;;;;;30.25;14.68;;;;;;;-8.33;78.00;91544.91;5013584;28;20038;-73
2022/03/13 05:35:12;;;;;;;42.30;17.90;;;;;;;-8.40;77.59;91568.06;5013593;28;20033;-73
2022/03/13 05:37:38;;;;;;;76.85;30.13;;;;;;;-8.06;77.51;91572.59;5013497;28;20092;-73
2022/03/13 05:40:06;;;;;;;25.60;14.13;;;;;;;-8.00;76.79;91571.88;5013776;28;20029;-73
2022/03/13 05:42:31;;;;;;;45.20;19.50;;;;;;;-7.82;76.33;91568.88;5013803;28;20034;-73
2022/03/13 05:44:57;;;;;;;27.33;12.30;;;;;;;-7.66;75.51;91570.44;5013326;28;20113;-73
2022/03/13 05:47:23;;;;;;;26.27;10.60;;;;;;;-7.69;75.61;91573.38;5013485;28;20035;-73
2022/03/13 05:49:48;;;;;;;25.30;12.90;;;;;;;-7.42;75.19;91574.41;4995632;28;20025;-73
2022/03/13 05:52:14;;;;;;;28.17;11.93;;;;;;;-7.23;74.82;91567.84;5013464;28;20034;-73
2022/03/13 05:54:40;;;;;;;18.45;8.32;;;;;;;-7.13;74.00;91579.44;5013212;28;20079;-73
2022/03/13 05:57:07;;;;;;;25.15;11.50;;;;;;;-7.12;73.34;91572.47;5013158;28;20446;-73
2022/03/13 05:59:36;;;;;;;39.42;17.80;;;;;;;-6.78;73.73;91563.97;5013053;28;20381;-73
2022/03/13 06:02:04;;;;;;;38.50;21.02;;;;;;;-6.11;71.73;91586.63;5012068;28;20046;-74
2022/03/13 06:04:32;;;;;;;20.38;11.00;;;;;;;-5.68;69.04;91579.34;5012949;28;20406;-74
2022/03/13 06:06:57;;;;;;;23.25;10.75;;;;;;;-5.46;67.42;91570.41;5012917;28;20106;-74
2022/03/13 06:09:22;;;;;;;22.33;11.57;;;;;;;-4.76;65.58;91585.59;5012833;28;20084;-73
2022/03/13 06:11:48;;;;;;;21.13;10.50;;;;;;;-4.24;63.69;91576.94;5012692;28;20037;-74
2022/03/13 06:14:13;;;;;;;16.60;8.38;;;;;;;-3.74;62.01;91569.38;5012247;28;20081;-73
2022/03/13 06:16:39;;;;;;;45.25;19.35;;;;;;;-3.19;60.64;91572.25;5002041;28;20029;-73
2022/03/13 06:19:04;;;;;;;20.33;10.45;;;;;;;-2.54;58.69;91578.75;5002636;28;20160;-74
2022/03/13 06:21:29;;;;;;;24.13;12.63;;;;;;;-2.96;57.80;91564.69;5000957;28;20097;-74
2022/03/13 06:23:55;;;;;;;27.83;14.93;;;;;;;-2.12;56.77;91568.53;4994929;28;20026;-74
2022/03/13 06:26:20;;;;;;;17.27;8.88;;;;;;;-1.45;53.97;91568.56;5012235;28;20096;-72
2022/03/13 06:28:46;;;;;;;24.70;11.10;;;;;;;-0.65;52.59;91569.81;5002529;28;20057;-73
2022/03/13 06:31:12;;;;;;;17.33;8.73;;;;;;;0.13;50.33;91566.03;5007585;28;20030;-74
2022/03/13 06:33:37;;;;;;;36.42;15.02;;;;;;;0.93;48.84;91561.84;5012467;28;20030;-73
2022/03/13 06:36:03;;;;;;;19.48;9.05;;;;;;;1.11;47.96;91580.00;5012413;28;20032;-73
2022/03/13 06:38:29;;;;;;;34.65;15.77;;;;;;;0.59;49.11;91574.81;5012418;28;20456;-73
2022/03/13 06:40:54;;;;;;;63.10;27.33;;;;;;;1.68;46.52;91585.13;5012526;28;20052;-73
2022/03/13 06:43:22;;;;;;;61.78;30.33;;;;;;;2.39;45.11;91580.91;5012084;28;20076;-73
2022/03/13 06:45:48;;;;;;;48.55;23.35;;;;;;;2.66;45.39;91581.75;5007523;28;20089;-73
2022/03/13 06:48:15;;;;;;;25.17;13.18;;;;;;;3.32;42.32;91571.19;4992616;28;20042;-73
2022/03/13 06:50:42;;;;;;;23.38;13.82;;;;;;;4.90;40.66;91564.31;4992504;28;20030;-73
2022/03/13 06:53:10;;;;;;;24.65;14.07;;;;;;;5.87;38.58;91573.22;5000482;28;20494;-73
2022/03/13 06:55:35;;;;;;;24.65;14.13;;;;;;;6.61;36.81;91570.78;5012161;28;20030;-73
2022/03/13 06:58:01;;;;;;;27.73;13.60;;;;;;;5.16;38.18;91570.47;5012118;28;20083;-73
2022/03/13 07:00:26;;;;;;;18.58;9.20;;;;;;;4.42;38.84;91566.22;5006952;28;20018;-74
2022/03/13 07:02:52;;;;;;;16.13;8.30;;;;;;;4.66;39.22;91569.22;4999527;28;20037;-73
2022/03/13 07:05:22;;;;;;;15.93;9.68;;;;;;;7.24;36.34;91575.56;5011587;28;20056;-71
2022/03/13 07:07:48;;;;;;;12.52;4.80;;;;;;;7.84;34.93;91567.56;5011733;28;20029;-69
2022/03/13 07:10:14;;;;;;;12.10;6.25;;;;;;;9.07;32.87;91573.34;5011615;28;20549;-70
2022/03/13 07:12:41;;;;;;;8.27;5.07;;;;;;;10.92;31.29;91571.97;5011601;28;20034;-69
2022/03/13 07:15:10;;;;;;;15.82;6.47;;;;;;;12.75;28.82;91565.34;5011158;28;20403;-74
2022/03/13 07:17:36;;;;;;;13.38;6.20;;;;;;;12.11;28.93;91554.06;5011433;28;20116;-70
2022/03/13 07:20:02;;;;;;;11.32;5.03;;;;;;;10.90;29.29;91565.38;5011301;28;20100;-70
2022/03/13 07:22:27;;;;;;;15.52;5.95;;;;;;;10.90;30.18;91570.69;5011213;28;20030;-68
2022/03/13 07:24:53;;;;;;;17.45;9.70;;;;;;;10.84;30.04;91567.31;5011435;28;20554;-68
2022/03/13 07:27:18;;;;;;;7.50;5.60;;;;;;;12.86;28.25;91558.66;5000505;28;20033;-70
2022/03/13 07:29:44;;;;;;;4.72;4.00;;;;;;;13.53;26.64;91559.56;4990101;28;20042;-69
2022/03/13 07:32:09;;;;;;;5.45;4.30;;;;;;;14.44;26.42;91567.56;4996807;28;20172;-72
2022/03/13 07:34:35;;;;;;;24.50;12.02;;;;;;;15.29;25.03;91563.13;4977927;28;20088;-69
2022/03/13 07:37:00;;;;;;;11.38;7.32;;;;;;;16.35;24.42;91567.63;4991371;28;20033;-69
2022/03/13 07:39:26;;;;;;;15.02;6.68;;;;;;;15.76;25.16;91560.41;4991547;28;20491;-71
2022/03/13 07:41:53;;;;;;;7.57;5.45;;;;;;;14.82;25.81;91565.00;4999104;28;20026;-70
2022/03/13 07:44:19;;;;;;;9.57;4.28;;;;;;;15.79;24.74;91557.09;5004131;28;20034;-67
2022/03/13 07:46:45;;;;;;;5.50;4.20;;;;;;;13.36;26.15;91568.31;4997385;28;20483;-70
2022/03/13 07:49:10;;;;;;;6.97;4.97;;;;;;;12.77;26.84;91560.47;5005594;28;20037;-70
2022/03/13 07:51:35;;;;;;;5.25;3.72;;;;;;;13.03;26.61;91560.59;4999875;28;20045;-69
2022/03/13 07:54:02;;;;;;;7.22;3.97;;;;;;;12.77;27.63;91552.47;5000924;28;20026;-67
2022/03/13 07:56:27;;;;;;;5.97;4.30;;;;;;;12.52;27.15;91561.13;4981523;28;20023;-67
2022/03/13 07:58:53;;;;;;;7.65;5.35;;;;;;;12.71;27.71;91563.59;4991082;28;20037;-70
2022/03/13 08:01:19;;;;;;;6.53;4.25;;;;;;;11.88;28.97;91571.13;4990456;28;20581;-71
2022/03/13 08:03:45;;;;;;;11.45;7.20;;;;;;;12.20;27.76;91568.28;5000146;28;20053;-73
2022/03/13 08:06:11;;;;;;;12.63;7.45;;;;;;;11.76;28.79;91560.97;5009896;28;20030;-71
2022/03/13 08:08:38;;;;;;;7.80;5.40;;;;;;;11.79;28.21;91562.25;4997171;28;20452;-74
2022/03/13 08:11:03;;;;;;;9.18;5.63;;;;;;;12.96;27.53;91560.28;4993847;28;20030;-74
2022/03/13 08:13:29;;;;;;;7.68;5.05;;;;;;;14.25;26.33;91562.50;4993266;28;20121;-72
2022/03/13 08:15:55;;;;;;;41.83;18.90;;;;;;;17.52;23.98;91558.28;5008048;28;20494;-71
2022/03/13 08:18:20;;;;;;;9.18;6.28;;;;;;;17.22;24.03;91559.59;5010241;28;20034;-69
2022/03/13 08:20:46;;;;;;;5.47;4.03;;;;;;;17.60;23.54;91554.69;5009418;28;20026;-69
2022/03/13 08:23:12;;;;;;;17.10;8.60;;;;;;;17.69;23.70;91557.31;4997221;28;20405;-70
2022/03/13 08:25:39;;;;;;;37.92;12.77;;;;;;;17.36;23.90;91543.91;5005969;28;20057;-68
2022/03/13 08:28:06;;;;;;;20.38;10.00;;;;;;;18.60;22.89;91555.03;5005725;28;20504;-67
2022/03/13 08:30:33;;;;;;;24.02;13.70;;;;;;;17.38;23.76;91552.44;4996544;28;20080;-68
2022/03/13 08:32:58;;;;;;;8.95;6.30;;;;;;;16.95;23.46;91544.84;4994059;28;20037;-68
2022/03/13 08:35:24;;;;;;;6.75;5.75;;;;;;;16.86;23.73;91550.28;4994597;28;20030;-68
2022/03/13 08:37:51;;;;;;;10.38;4.30;;;;;;;16.33;25.33;91535.72;4994400;28;20172;-69
2022/03/13 08:40:17;;;;;;;8.38;7.60;;;;;;;16.71;24.37;91546.31;4994339;28;20022;-69
2022/03/13 08:42:42;;;;;;;11.60;8.70;;;;;;;15.31;26.06;91544.06;4994004;28;20041;-68
2022/03/13 08:45:11;;;;;;;6.18;5.07;;;;;;;15.42;25.96;91547.94;4994052;28;20026;-69
2022/03/13 08:47:37;;;;;;;4.90;4.10;;;;;;;16.35;24.40;91540.75;4994383;28;20042;-72
2022/03/13 08:50:02;;;;;;;6.13;4.20;;;;;;;18.54;24.09;91542.94;4976719;28;20029;-72
2022/03/13 08:52:28;;;;;;;8.20;5.38;;;;;;;18.96;22.26;91547.97;4993923;28;20032;-72
2022/03/13 08:54:53;;;;;;;5.38;4.85;;;;;;;20.04;21.84;91534.91;4994082;28;20118;-73
2022/03/13 08:57:19;;;;;;;5.78;3.78;;;;;;;17.77;23.26;91531.41;4994152;28;20038;-70
2022/03/13 08:59:44;;;;;;;6.82;5.45;;;;;;;18.45;22.93;91539.56;4995335;28;20026;-70
2022/03/13 09:02:10;;;;;;;8.43;5.03;;;;;;;19.10;21.43;91538.34;4994476;28;20081;-69
2022/03/13 09:04:35;;;;;;;9.95;7.05;;;;;;;18.76;21.91;91534.31;4999860;28;20069;-70
2022/03/13 09:07:01;;;;;;;13.18;9.52;;;;;;;19.69;21.79;91536.75;4998129;28;20497;-69
2022/03/13 09:09:27;;;;;;;13.55;6.47;;;;;;;16.34;24.93;91534.59;4997608;28;20029;-70
2022/03/13 09:11:53;;;;;;;10.65;8.20;;;;;;;17.46;23.13;91527.31;4990538;28;20021;-70
2022/03/13 09:14:18;;;;;;;9.93;6.53;;;;;;;13.86;25.01;91528.63;4993397;28;20125;-71
2022/03/13 09:16:44;;;;;;;4.20;3.70;;;;;;;13.33;25.10;91524.28;4993599;28;20034;-71
2022/03/13 09:19:10;;;;;;;7.70;4.07;;;;;;;12.38;26.01;91525.72;4993693;28;20054;-69
2022/03/13 09:21:38;;;;;;;22.52;13.80;;;;;;;12.46;27.73;91528.41;4993520;28;20089;-69
2022/03/13 09:24:08;;;;;;;23.60;14.43;;;;;;;16.31;24.77;91516.47;4976216;28;20053;-70
2022/03/13 09:26:40;;;;;;;8.90;5.68;;;;;;;16.51;22.71;91522.16;4993473;28;20034;-70
2022/03/13 09:29:07;;;;;;;9.60;5.65;;;;;;;17.85;22.13;91515.13;4993444;28;20456;-72
2022/03/13 09:31:34;;;;;;;8.98;5.15;;;;;;;16.74;21.74;91523.41;4976036;28;20030;-70
2022/03/13 09:33:59;;;;;;;5.28;3.17;;;;;;;13.97;23.03;91513.06;4993859;28;20461;-71
2022/03/13 09:36:25;;;;;;;6.47;5.05;;;;;;;13.22;26.33;91508.84;4993195;28;20050;-72
2022/03/13 09:38:51;;;;;;;5.63;4.57;;;;;;;12.95;25.41;91509.84;4993394;28;20065;-70
2022/03/13 09:41:17;;;;;;;6.72;4.38;;;;;;;11.21;27.69;91499.00;4993455;28;20062;-69
2022/03/13 09:43:43;;;;;;;12.25;3.90;;;;;;;12.33;26.61;91499.16;4991926;28;20065;-69
2022/03/13 09:46:08;;;;;;;3.78;3.10;;;;;;;11.51;24.16;91505.53;4996114;28;20141;-69
2022/03/13 09:48:36;;;;;;;4.03;3.15;;;;;;;12.96;24.21;91500.72;5002069;28;20061;-68
2022/03/13 09:51:04;;;;;;;4.68;3.97;;;;;;;12.04;24.81;91504.91;5006994;28;20030;-69
2022/03/13 09:53:31;;;;;;;3.50;3.05;;;;;;;12.55;24.90;91499.13;4998626;28;20531;-69
2022/03/13 09:55:57;;;;;;;4.82;3.42;;;;;;;11.25;25.45;91490.09;4995839;28;20435;-70
2022/03/13 09:58:23;;;;;;;3.75;3.30;;;;;;;12.17;25.85;91490.75;4995485;28;20404;-71
2022/03/13 10:00:48;;;;;;;4.28;3.42;;;;;;;12.41;26.24;91496.53;4989971;28;20482;-69
2022/03/13 10:03:14;;;;;;;8.75;3.92;;;;;;;11.68;27.36;91498.50;4999919;28;20058;-70
2022/03/13 10:05:47;;;;;;;3.47;3.17;;;;;;;12.34;25.68;91484.72;5001562;28;20065;-71
2022/03/13 10:08:13;;;;;;;4.25;2.95;;;;;;;12.63;24.88;91494.94;5001095;28;20085;-70
2022/03/13 10:10:44;;;;;;;3.05;2.75;;;;;;;11.52;25.86;91501.78;5008766;28;20786;-68
2022/03/13 10:13:13;;;;;;;3.13;2.83;;;;;;;12.04;24.13;91499.59;5012353;28;20057;-70
2022/03/13 10:15:46;;;;;;;3.63;2.85;;;;;;;13.57;25.25;91493.69;5011994;28;20123;-69
2022/03/13 10:18:25;;;;;;;9.18;6.32;;;;;;;12.39;27.30;91487.25;5012357;28;20458;-71
2022/03/13 10:20:52;;;;;;;4.05;3.25;;;;;;;13.13;25.43;91498.91;5011593;28;20396;-68
2022/03/13 10:23:20;;;;;;;5.18;3.67;;;;;;;11.22;26.57;91492.59;5009172;28;20026;-68
2022/03/13 10:25:50;;;;;;;4.60;4.00;;;;;;;11.55;27.29;91485.22;5005963;28;20031;-69
2022/03/13 10:28:17;;;;;;;3.45;3.00;;;;;;;11.58;25.37;91490.72;4994945;28;20030;-71
2022/03/13 10:30:45;;;;;;;3.42;2.90;;;;;;;11.11;27.52;91486.66;4992512;28;20391;-73
2022/03/13 10:33:11;;;;;;;6.35;3.42;;;;;;;9.38;29.76;91489.59;4992513;28;20034;-71
2022/03/13 10:35:39;;;;;;;11.60;5.65;;;;;;;11.51;28.59;91482.34;4992381;28;20034;-71
2022/03/13 10:38:19;;;;;;;12.65;6.38;;;;;;;10.83;28.08;91480.56;4992441;28;20117;-72
2022/03/13 10:40:50;;;;;;;16.17;4.63;;;;;;;10.12;28.38;91481.84;4992464;28;20030;-72
2022/03/13 10:43:20;;;;;;;5.50;3.63;;;;;;;9.90;28.21;91490.41;4992432;28;20062;-72
2022/03/13 10:45:53;;;;;;;4.57;3.20;;;;;;;10.10;27.51;91470.72;4992361;28;20031;-72
2022/03/13 10:48:33;;;;;;;8.30;4.75;;;;;;;8.57;28.58;91474.69;4984916;28;20069;-71
2022/03/13 10:51:04;;;;;;;8.20;4.07;;;;;;;6.66;30.82;91474.81;4992217;28;20031;-72
2022/03/13 10:53:31;;;;;;;14.68;9.07;;;;;;;6.83;31.47;91475.25;4992224;28;20113;-71
2022/03/13 10:56:12;;;;;;;6.15;3.80;;;;;;;7.20;31.46;91474.78;4992102;28;20479;-71
2022/03/13 10:58:45;;;;;;;7.43;4.70;;;;;;;8.83;30.67;91467.22;4992170;28;20407;-72
2022/03/13 11:01:12;;;;;;;6.85;4.35;;;;;;;7.68;30.54;91463.59;4991976;28;20479;-72
2022/03/13 11:03:59;;;;;;;5.10;3.92;;;;;;;7.16;31.18;91460.53;4991946;28;20057;-72
2022/03/13 11:06:26;;;;;;;6.93;5.13;;;;;;;7.86;31.67;91454.97;4992277;28;20503;-72
2022/03/13 11:08:55;;;;;;;4.57;3.13;;;;;;;7.50;31.57;91465.06;4992052;28;20027;-72
2022/03/13 11:11:27;;;;;;;5.03;3.67;;;;;;;6.71;32.64;91460.78;4991764;28;20054;-72
2022/03/13 11:13:56;;;;;;;8.33;6.60;;;;;;;6.66;33.57;91453.66;4974242;28;20018;-72
2022/03/13 11:16:26;;;;;;;5.85;3.25;;;;;;;7.28;30.30;91454.91;4991883;28;20023;-72
2022/03/13 11:18:55;;;;;;;4.53;3.10;;;;;;;6.35;33.35;91452.19;4996633;28;20109;-72
2022/03/13 11:21:22;;;;;;;3.97;3.20;;;;;;;6.54;31.60;91439.97;5010773;28;20022;-71
2022/03/13 11:23:49;;;;;;;4.53;3.30;;;;;;;6.85;32.23;91446.69;5000716;28;20088;-68
2022/03/13 11:26:16;;;;;;;4.25;3.08;;;;;;;6.35;31.18;91433.72;4991168;28;20041;-67
2022/03/13 11:28:46;;;;;;;6.63;4.47;;;;;;;6.42;31.39;91439.47;4991349;28;20088;-66